Time;durP1;ratioP1;P1;durP2;ratioP2;P2;SDS_P1;SDS_P2;PMS_P1;PMS_P2;Temp;Humidity;BMP_temperature;BMP_pressure;BME280_temperature;BME280_humidity;BME280_pressure;Samples;Min_cycle;Max_cycle;Signal;HPM_P1;HPM_P2
2022/06/24 00:02:21;;;;;;;533.13;484.75;;;;;;;21.75;100.00;98679.91;5074434;28;20192;-76
2022/06/24 00:04:52;;;;;;;538.28;489.80;;;;;;;21.73;100.00;98677.38;5074069;28;20224;-77
2022/06/24 00:07:19;;;;;;;516.85;468.75;;;;;;;21.80;100.00;98667.41;5074136;28;20185;-77
2022/06/24 00:09:46;;;;;;;520.33;472.13;;;;;;;21.77;100.00;98664.16;5077777;28;20557;-79
2022/06/24 00:12:16;;;;;;;517.38;469.60;;;;;;;21.82;100.00;98658.97;5094303;28;20196;-79
2022/06/24 00:14:45;;;;;;;519.90;472.00;;;;;;;22.00;100.00;98661.38;5094123;28;20231;-78
2022/06/24 00:17:13;;;;;;;539.40;491.02;;;;;;;21.97;100.00;98667.25;5094061;28;20197;-76
2022/06/24 00:19:53;;;;;;;541.88;493.40;;;;;;;21.86;100.00;98654.81;5093720;28;20196;-77
2022/06/24 00:22:21;;;;;;;514.55;466.67;;;;;;;21.94;100.00;98653.91;5093800;28;20196;-78
2022/06/24 00:24:47;;;;;;;534.72;486.13;;;;;;;21.91;100.00;98648.78;5093589;28;20196;-77
2022/06/24 00:27:20;;;;;;;540.88;492.33;;;;;;;21.91;100.00;98648.78;5093021;28;20270;-78
2022/06/24 00:29:47;;;;;;;512.70;464.48;;;;;;;21.90;100.00;98652.59;5093380;28;20271;-77
2022/06/24 00:32:14;;;;;;;525.08;476.45;;;;;;;21.89;100.00;98665.44;5093160;28;20207;-77
2022/06/24 00:34:41;;;;;;;509.20;461.40;;;;;;;21.83;100.00;98663.44;5093480;28;20275;-78
2022/06/24 00:37:28;;;;;;;502.98;455.35;;;;;;;21.76;100.00;98662.47;5093295;28;20279;-77
2022/06/24 00:39:56;;;;;;;494.85;447.10;;;;;;;21.70;100.00;98661.28;5093390;28;20246;-77
2022/06/24 00:42:25;;;;;;;538.75;490.40;;;;;;;21.79;100.00;98659.34;5093252;28;20365;-78
2022/06/24 00:45:01;;;;;;;507.92;460.33;;;;;;;21.78;100.00;98669.47;5093120;28;20216;-76
2022/06/24 00:47:29;;;;;;;497.15;449.48;;;;;;;21.71;100.00;98673.97;5093599;28;20566;-75
2022/06/24 00:49:59;;;;;;;538.80;490.17;;;;;;;21.44;100.00;98670.72;5093704;28;20541;-77
2022/06/24 00:52:26;;;;;;;509.65;461.73;;;;;;;21.35;100.00;98680.00;5093541;28;20180;-77
2022/06/24 00:54:53;;;;;;;514.80;467.00;;;;;;;21.22;100.00;98668.78;5093339;28;20259;-77
2022/06/24 00:57:19;;;;;;;546.50;497.45;;;;;;;21.05;100.00;98673.47;5093592;28;20238;-78
2022/06/24 00:59:48;;;;;;;504.17;456.40;;;;;;;21.03;100.00;98673.69;5093802;28;20275;-78
2022/06/24 01:02:16;;;;;;;507.17;459.17;;;;;;;20.88;100.00;98669.13;5093403;28;20287;-77
2022/06/24 01:04:43;;;;;;;503.00;455.00;;;;;;;20.97;100.00;98676.28;5092720;28;20604;-77
2022/06/24 01:07:10;;;;;;;500.58;452.83;;;;;;;21.01;100.00;98667.53;5093255;28;20207;-77
2022/06/24 01:09:37;;;;;;;499.27;451.52;;;;;;;20.96;100.00;98669.97;5092828;28;20286;-76
2022/06/24 01:12:05;;;;;;;483.58;436.23;;;;;;;21.04;100.00;98669.91;5093104;28;20543;-76
2022/06/24 01:14:31;;;;;;;488.83;441.25;;;;;;;20.82;100.00;98662.47;5092767;28;20189;-76
2022/06/24 01:16:59;;;;;;;484.58;436.90;;;;;;;20.75;100.00;98659.59;5092970;28;20224;-77
2022/06/24 01:19:28;;;;;;;476.83;429.73;;;;;;;20.90;100.00;98670.66;5092802;28;20184;-77
2022/06/24 01:21:56;;;;;;;468.90;421.92;;;;;;;20.95;100.00;98662.75;5093068;28;20642;-77
2022/06/24 01:24:25;;;;;;;488.27;440.55;;;;;;;20.95;100.00;98660.03;5091776;28;20377;-77
2022/06/24 01:26:53;;;;;;;467.45;420.48;;;;;;;20.99;100.00;98658.66;5092899;28;20226;-77
2022/06/24 01:29:20;;;;;;;473.73;425.98;;;;;;;20.73;100.00;98660.81;5092402;28;20184;-76
2022/06/24 01:31:49;;;;;;;492.23;444.35;;;;;;;20.70;100.00;98669.38;5092409;28;20613;-77
2022/06/24 01:34:16;;;;;;;462.42;415.80;;;;;;;21.01;100.00;98673.00;5092458;28;20176;-78
2022/06/24 01:36:43;;;;;;;471.25;424.50;;;;;;;20.88;100.00;98660.94;5093001;28;21012;-78
2022/06/24 01:39:12;;;;;;;468.00;421.05;;;;;;;21.07;100.00;98671.44;5092462;28;20909;-78
2022/06/24 01:41:39;;;;;;;454.90;407.98;;;;;;;20.86;100.00;98663.84;5092297;28;20243;-77
2022/06/24 01:44:06;;;;;;;477.75;430.70;;;;;;;21.07;100.00;98667.84;5092218;28;20209;-76
2022/06/24 01:46:32;;;;;;;459.52;412.50;;;;;;;20.95;100.00;98659.19;5091893;28;20315;-78
2022/06/24 01:48:59;;;;;;;464.67;417.92;;;;;;;21.00;100.00;98659.50;5092538;28;20235;-78
2022/06/24 01:51:27;;;;;;;456.35;409.73;;;;;;;20.96;100.00;98656.28;5092278;28;20622;-77
2022/06/24 01:53:54;;;;;;;468.25;421.05;;;;;;;20.99;100.00;98649.59;5091299;28;20615;-77
2022/06/24 01:56:22;;;;;;;470.10;422.38;;;;;;;21.07;100.00;98649.53;5087124;28;20263;-77
2022/06/24 01:58:49;;;;;;;469.75;422.70;;;;;;;21.10;100.00;98651.06;5091810;28;20665;-77
2022/06/24 02:01:15;;;;;;;453.17;406.60;;;;;;;21.12;100.00;98646.25;5091898;28;20618;-76
2022/06/24 02:03:42;;;;;;;451.20;404.40;;;;;;;21.02;100.00;98643.75;5091633;28;20304;-77
2022/06/24 02:06:11;;;;;;;465.35;418.40;;;;;;;20.83;100.00;98645.06;5091711;28;20295;-77
2022/06/24 02:08:38;;;;;;;462.90;416.25;;;;;;;20.84;100.00;98638.53;5091527;28;20200;-75
2022/06/24 02:13:52;;;;;;;480.88;433.52;;;;;;;20.76;100.00;98635.84;5091839;28;20182;-76
2022/06/24 02:16:20;;;;;;;504.67;456.25;;;;;;;20.88;100.00;98628.09;5091796;28;20234;-77
2022/06/24 02:18:47;;;;;;;508.95;460.15;;;;;;;20.85;100.00;98631.19;5091646;28;20184;-77
2022/06/24 02:21:15;;;;;;;493.58;445.02;;;;;;;20.88;100.00;98628.94;5091742;28;20215;-76
2022/06/24 02:23:43;;;;;;;499.02;450.83;;;;;;;20.93;100.00;98625.69;5091583;28;20199;-76
2022/06/24 02:26:10;;;;;;;500.80;452.50;;;;;;;20.95;100.00;98621.72;5091929;28;20592;-76
2022/06/24 02:28:37;;;;;;;507.33;458.83;;;;;;;21.04;100.00;98625.28;5091166;28;20207;-76
2022/06/24 02:31:07;;;;;;;495.80;447.23;;;;;;;21.05;100.00;98618.75;5092153;28;20204;-77
2022/06/24 02:33:35;;;;;;;490.48;442.33;;;;;;;20.91;100.00;98614.06;5091589;28;20288;-77
2022/06/24 02:36:02;;;;;;;483.02;434.83;;;;;;;21.04;100.00;98609.69;5091953;28;20529;-78
2022/06/24 02:38:29;;;;;;;488.70;440.73;;;;;;;21.09;100.00;98617.38;5090833;28;20191;-77
2022/06/24 02:40:58;;;;;;;465.77;418.85;;;;;;;21.09;100.00;98617.38;5091517;28;20279;-76
2022/06/24 02:43:26;;;;;;;474.58;427.42;;;;;;;21.04;100.00;98609.69;5091381;28;20275;-77
2022/06/24 02:45:58;;;;;;;456.25;409.48;;;;;;;21.13;100.00;98615.13;5091883;28;20226;-75
2022/06/24 02:48:26;;;;;;;457.52;410.75;;;;;;;21.07;100.00;98610.38;5090762;28;20198;-76
2022/06/24 02:50:54;;;;;;;453.52;406.85;;;;;;;21.17;100.00;98600.06;5091969;28;20662;-77
2022/06/24 02:53:23;;;;;;;457.95;411.75;;;;;;;21.03;100.00;98601.69;5102029;28;20202;-76
2022/06/24 02:55:52;;;;;;;453.05;406.67;;;;;;;21.01;100.00;98610.06;5112722;28;20352;-78
2022/06/24 02:58:19;;;;;;;438.52;392.23;;;;;;;21.01;100.00;98604.59;5101769;28;20283;-77
2022/06/24 03:00:45;;;;;;;435.38;388.60;;;;;;;20.96;100.00;98608.88;5095076;28;20235;-77
2022/06/24 03:03:15;;;;;;;462.33;415.88;;;;;;;21.02;100.00;98614.50;5095058;28;20287;-77
2022/06/24 03:05:44;;;;;;;452.52;406.15;;;;;;;21.00;100.00;98615.72;5095815;28;20357;-77
2022/06/24 03:08:12;;;;;;;462.67;415.92;;;;;;;21.10;100.00;98618.22;5095181;28;20617;-76
2022/06/24 03:10:39;;;;;;;447.73;401.23;;;;;;;21.02;100.00;98609.03;5095061;28;20195;-76
2022/06/24 03:13:06;;;;;;;448.88;402.13;;;;;;;21.05;100.00;98616.00;5095272;28;20749;-77
2022/06/24 03:15:33;;;;;;;454.00;407.05;;;;;;;21.14;100.00;98619.56;5095223;28;20270;-77
2022/06/24 03:18:01;;;;;;;456.92;410.40;;;;;;;21.01;100.00;98617.44;5094905;28;20294;-76
2022/06/24 03:20:28;;;;;;;447.35;400.98;;;;;;;20.96;100.00;98617.09;5095545;28;20632;-76
2022/06/24 03:22:56;;;;;;;451.42;405.08;;;;;;;20.87;100.00;98624.53;5095346;28;20286;-78
2022/06/24 03:25:23;;;;;;;449.67;403.08;;;;;;;20.95;100.00;98631.81;5095506;28;20271;-77
2022/06/24 03:27:50;;;;;;;456.58;410.15;;;;;;;21.07;100.00;98635.00;5095493;28;20224;-78
2022/06/24 03:30:17;;;;;;;454.65;407.95;;;;;;;21.12;100.00;98635.31;5095204;28;20235;-77
2022/06/24 03:32:44;;;;;;;459.38;412.52;;;;;;;21.04;100.00;98622.53;5095116;28;20186;-77
2022/06/24 03:35:11;;;;;;;453.65;407.13;;;;;;;20.87;100.00;98624.53;5094783;28;20219;-77
2022/06/24 03:37:38;;;;;;;449.58;403.23;;;;;;;20.87;100.00;98615.44;5094346;28;20202;-76
2022/06/24 03:40:07;;;;;;;445.38;398.98;;;;;;;20.86;100.00;98622.81;5094514;28;20282;-77
2022/06/24 03:42:33;;;;;;;471.73;425.08;;;;;;;21.02;100.00;98624.59;5093956;28;20276;-77
2022/06/24 03:45:00;;;;;;;438.02;392.52;;;;;;;21.04;100.00;98628.84;5094815;28;20290;-77
2022/06/24 03:47:27;;;;;;;416.35;370.77;;;;;;;21.03;100.00;98624.44;5094422;28;20635;-77
2022/06/24 03:49:54;;;;;;;435.55;389.38;;;;;;;20.81;100.00;98630.69;5094530;28;20289;-76
2022/06/24 03:52:20;;;;;;;456.55;409.75;;;;;;;20.82;100.00;98624.19;5094542;28;20635;-77
2022/06/24 03:54:47;;;;;;;433.65;387.65;;;;;;;20.92;100.00;98627.56;5093561;28;20251;-77
2022/06/24 03:57:15;;;;;;;469.08;421.85;;;;;;;20.94;100.00;98628.25;5094276;28;20184;-77
2022/06/24 03:59:42;;;;;;;425.30;379.67;;;;;;;20.88;100.00;98623.47;5094494;28;20637;-78
2022/06/24 04:02:08;;;;;;;431.40;385.50;;;;;;;21.00;100.00;98622.03;5094162;28;20290;-76
2022/06/24 04:04:35;;;;;;;431.98;385.65;;;;;;;21.06;100.00;98625.09;5094243;28;20275;-76
2022/06/24 04:07:02;;;;;;;426.58;380.50;;;;;;;20.99;100.00;98614.88;5093406;28;20277;-77
2022/06/24 04:09:28;;;;;;;428.98;383.17;;;;;;;20.99;100.00;98625.81;5094892;28;20275;-77
2022/06/24 04:11:55;;;;;;;430.05;384.20;;;;;;;21.01;100.00;98623.75;5093623;28;20709;-77
2022/06/24 04:17:04;;;;;;;461.02;414.38;;;;;;;21.07;100.00;98633.09;5093041;28;20181;-77
2022/06/24 04:19:31;;;;;;;437.70;391.60;;;;;;;20.79;100.00;98624.56;5094115;28;20545;-77
2022/06/24 04:21:57;;;;;;;462.70;415.85;;;;;;;20.88;100.00;98622.63;5092944;28;20287;-78
2022/06/24 04:24:24;;;;;;;460.10;413.67;;;;;;;20.98;100.00;98624.13;5092116;28;20725;-78
2022/06/24 04:26:50;;;;;;;433.65;387.33;;;;;;;21.07;100.00;98619.44;5093779;28;20684;-77
2022/06/24 04:29:17;;;;;;;446.70;400.20;;;;;;;21.02;100.00;98619.97;5092738;28;20184;-78
2022/06/24 04:31:45;;;;;;;437.35;391.40;;;;;;;21.12;100.00;98619.75;5093767;28;20684;-77
2022/06/24 04:34:12;;;;;;;438.83;392.90;;;;;;;21.02;100.00;98619.13;5093872;28;20192;-78
2022/06/24 04:36:38;;;;;;;446.85;399.80;;;;;;;21.13;100.00;98628.81;5093534;28;20613;-77
2022/06/24 04:39:05;;;;;;;470.15;423.40;;;;;;;21.08;100.00;98628.50;5093680;28;20626;-76
2022/06/24 04:41:32;;;;;;;450.00;403.80;;;;;;;20.98;100.00;98629.59;5093768;28;20638;-77
2022/06/24 04:43:58;;;;;;;438.63;392.65;;;;;;;20.99;100.00;98638.66;5093352;28;20303;-77
2022/06/24 04:46:25;;;;;;;457.88;411.15;;;;;;;21.01;100.00;98637.44;5093476;28;20330;-78
2022/06/24 04:48:53;;;;;;;436.42;389.90;;;;;;;21.17;100.00;98641.13;5093362;28;20239;-78
2022/06/24 04:51:19;;;;;;;453.83;407.30;;;;;;;21.13;100.00;98642.50;5093261;28;20184;-77
2022/06/24 04:53:46;;;;;;;429.95;384.40;;;;;;;21.12;100.00;98632.56;5093580;28;20940;-77
2022/06/24 04:56:13;;;;;;;459.75;413.55;;;;;;;21.15;100.00;98638.53;5093046;28;20224;-77
2022/06/24 04:58:39;;;;;;;445.23;398.80;;;;;;;21.35;100.00;98630.72;5093618;28;20180;-77
2022/06/24 05:01:06;;;;;;;441.23;395.20;;;;;;;21.33;100.00;98632.78;5093226;28;20709;-77
2022/06/24 05:03:33;;;;;;;463.67;416.30;;;;;;;21.13;100.00;98637.03;5093376;28;20653;-78
2022/06/24 05:06:00;;;;;;;469.48;422.58;;;;;;;21.25;100.00;98638.31;5092954;28;20204;-78
2022/06/24 05:08:27;;;;;;;443.95;397.77;;;;;;;21.05;100.00;98643.38;5086526;28;20303;-80
2022/06/24 05:10:54;;;;;;;449.70;402.33;;;;;;;21.02;100.00;98644.59;5082818;28;20231;-81
2022/06/24 05:13:20;;;;;;;450.52;404.10;;;;;;;20.98;100.00;98646.00;5092964;28;20275;-82
2022/06/24 05:15:47;;;;;;;471.88;424.45;;;;;;;20.93;100.00;98642.94;5092074;28;20223;-79
2022/06/24 05:18:15;;;;;;;461.27;414.63;;;;;;;20.82;100.00;98635.97;5089955;28;20203;-79
2022/06/24 05:20:41;;;;;;;447.30;400.92;;;;;;;20.75;100.00;98639.59;5092308;28;20267;-80
2022/06/24 05:23:09;;;;;;;456.23;409.15;;;;;;;20.45;100.00;98643.97;5091615;28;20184;-80
2022/06/24 05:25:36;;;;;;;474.15;425.80;;;;;;;20.69;100.00;98648.50;5092172;28;20204;-79
2022/06/24 05:28:03;;;;;;;451.52;404.85;;;;;;;20.56;100.00;98652.69;5090374;28;20307;-81
2022/06/24 05:30:29;;;;;;;441.02;394.45;;;;;;;20.60;100.00;98645.84;5089524;28;20287;-82
2022/06/24 05:32:56;;;;;;;440.83;393.40;;;;;;;20.64;100.00;98654.50;5091402;28;20607;-79
2022/06/24 05:35:22;;;;;;;458.40;410.95;;;;;;;20.52;100.00;98655.91;5091314;28;20275;-81
2022/06/24 05:37:49;;;;;;;442.67;395.88;;;;;;;21.07;100.00;98651.41;5091117;28;20603;-80
2022/06/24 05:40:17;;;;;;;443.08;396.17;;;;;;;21.20;100.00;98654.44;5091183;28;20275;-80
2022/06/24 05:42:44;;;;;;;441.45;394.70;;;;;;;21.47;100.00;98644.03;5089998;28;20223;-80
2022/06/24 05:45:11;;;;;;;444.85;397.63;;;;;;;21.46;100.00;98637.69;5090249;28;20622;-80
2022/06/24 05:47:38;;;;;;;448.00;401.50;;;;;;;21.26;100.00;98640.03;5091525;28;20290;-80
2022/06/24 05:50:05;;;;;;;471.75;423.95;;;;;;;21.21;100.00;98628.75;5090917;28;20275;-80
2022/06/24 05:55:17;;;;;;;433.10;386.77;;;;;;;21.26;100.00;98626.34;5090675;28;20589;-79
2022/06/24 05:57:44;;;;;;;447.55;400.40;;;;;;;21.38;100.00;98624.03;5091495;28;20646;-82
2022/06/24 06:00:11;;;;;;;467.20;419.55;;;;;;;21.74;100.00;98624.28;5091397;28;20275;-82
2022/06/24 06:02:38;;;;;;;459.83;412.13;;;;;;;21.94;100.00;98607.34;5091095;28;20196;-82
2022/06/24 06:05:05;;;;;;;490.75;442.30;;;;;;;22.17;100.00;98624.56;5089824;28;20192;-81
2022/06/24 06:07:32;;;;;;;487.30;439.42;;;;;;;21.88;100.00;98625.34;5090931;28;20196;-80
2022/06/24 06:09:58;;;;;;;473.83;425.98;;;;;;;21.75;100.00;98628.72;5108813;28;20233;-81
2022/06/24 06:12:26;;;;;;;484.52;436.75;;;;;;;21.73;100.00;98627.19;5111896;28;20262;-83
2022/06/24 06:14:53;;;;;;;475.65;427.80;;;;;;;21.61;100.00;98629.53;5097707;28;20576;-82
2022/06/24 06:17:19;;;;;;;455.75;408.65;;;;;;;21.68;100.00;98635.97;5091416;28;20529;-80
2022/06/24 06:19:46;;;;;;;477.40;430.30;;;;;;;21.70;100.00;98633.91;5092450;28;20263;-81
2022/06/24 06:22:13;;;;;;;479.60;431.25;;;;;;;21.73;100.00;98638.16;5084647;28;20627;-81
2022/06/24 06:24:39;;;;;;;451.88;404.95;;;;;;;22.06;100.00;98627.75;5085501;28;20282;-82
2022/06/24 06:27:07;;;;;;;465.75;418.63;;;;;;;22.25;100.00;98638.22;5094552;28;20255;-81
2022/06/24 06:29:35;;;;;;;478.05;429.60;;;;;;;22.29;100.00;98633.19;5095251;28;20192;-82
2022/06/24 06:32:02;;;;;;;501.63;453.33;;;;;;;22.45;100.00;98627.56;5098921;28;20617;-82
2022/06/24 06:34:29;;;;;;;473.00;425.42;;;;;;;22.65;100.00;98627.81;5098743;28;20188;-82
2022/06/24 06:36:55;;;;;;;493.25;445.48;;;;;;;23.02;100.00;98626.00;5099171;28;20232;-82
2022/06/24 06:39:22;;;;;;;522.58;473.70;;;;;;;23.19;100.00;98628.50;5097975;28;20220;-81
2022/06/24 06:41:49;;;;;;;503.45;455.48;;;;;;;23.41;99.75;98619.25;5096966;28;20274;-80
2022/06/24 06:44:16;;;;;;;515.55;467.30;;;;;;;23.73;97.40;98619.78;5096825;28;20657;-80
2022/06/24 06:46:44;;;;;;;529.38;480.17;;;;;;;23.56;100.00;98623.81;5095620;28;20677;-80
2022/06/24 06:49:10;;;;;;;515.22;466.75;;;;;;;23.61;96.40;98629.59;5095221;28;20551;-81
2022/06/24 06:51:37;;;;;;;552.20;503.03;;;;;;;24.06;95.56;98635.72;5094529;28;20184;-80
2022/06/24 06:54:04;;;;;;;567.40;517.47;;;;;;;24.06;94.23;98636.59;5095252;28;20521;-79
2022/06/24 06:56:31;;;;;;;569.87;520.37;;;;;;;24.18;94.93;98631.38;5094049;28;20489;-79
2022/06/24 06:58:57;;;;;;;563.42;513.83;;;;;;;24.34;92.51;98627.47;5094185;28;20527;-79
2022/06/24 07:01:24;;;;;;;575.07;525.50;;;;;;;24.58;88.76;98634.44;5095360;28;20286;-79
2022/06/24 07:03:52;;;;;;;587.63;537.87;;;;;;;24.53;89.08;98631.41;5095306;28;20520;-79
2022/06/24 07:06:18;;;;;;;593.40;543.30;;;;;;;24.14;90.70;98627.31;5094395;28;20524;-79
2022/06/24 07:08:45;;;;;;;555.47;506.27;;;;;;;23.87;90.84;98631.75;5100999;28;20494;-82
2022/06/24 07:11:12;;;;;;;542.95;494.20;;;;;;;23.92;92.35;98629.25;5093758;28;20438;-82
2022/06/24 07:13:38;;;;;;;551.13;502.23;;;;;;;24.19;91.48;98623.97;5094368;28;20296;-82
2022/06/24 07:16:10;;;;;;;576.87;527.23;;;;;;;24.27;89.15;98630.19;5094435;28;20422;-80
2022/06/24 07:18:37;;;;;;;579.53;529.90;;;;;;;24.39;88.46;98632.38;5094804;28;20430;-80
2022/06/24 07:21:05;;;;;;;581.67;531.93;;;;;;;23.92;91.13;98632.88;5093545;28;20449;-80
2022/06/24 07:23:31;;;;;;;582.20;532.43;;;;;;;23.63;94.52;98635.72;5094354;28;20426;-80
2022/06/24 07:25:58;;;;;;;548.22;498.88;;;;;;;23.99;94.87;98638.41;5093850;28;20515;-81
2022/06/24 07:28:26;;;;;;;564.25;515.05;;;;;;;24.12;92.17;98634.91;5094354;28;20230;-79
2022/06/24 07:30:52;;;;;;;574.97;525.60;;;;;;;24.05;92.25;98634.88;5094527;28;20196;-80
2022/06/24 07:33:19;;;;;;;558.27;508.57;;;;;;;24.28;87.36;98637.38;5093871;28;20553;-80
2022/06/24 07:35:46;;;;;;;572.93;523.30;;;;;;;24.60;85.76;98643.31;5094494;28;20536;-81
2022/06/24 07:38:13;;;;;;;567.80;518.10;;;;;;;24.05;86.37;98648.63;5094249;28;20422;-82
2022/06/24 07:40:40;;;;;;;556.95;507.45;;;;;;;23.92;87.66;98632.00;5093553;28;20524;-81
2022/06/24 07:43:07;;;;;;;567.00;517.80;;;;;;;23.85;87.73;98637.44;5093239;28;20196;-81
2022/06/24 07:45:34;;;;;;;565.67;516.00;;;;;;;23.44;92.61;98640.81;5093614;28;20446;-82
2022/06/24 07:48:02;;;;;;;559.30;509.83;;;;;;;23.79;92.76;98632.75;5094832;28;20482;-81
2022/06/24 07:50:28;;;;;;;570.70;520.83;;;;;;;24.07;88.63;98634.69;5093103;28;20500;-81
2022/06/24 07:52:55;;;;;;;578.27;528.17;;;;;;;23.90;88.80;98628.59;5092813;28;20192;-81
2022/06/24 07:58:07;;;;;;;540.80;491.87;;;;;;;24.03;86.91;98625.13;5072065;28;20422;-79
2022/06/24 08:00:33;;;;;;;529.03;480.77;;;;;;;24.11;85.50;98628.56;5093284;28;20470;-78
2022/06/24 08:03:00;;;;;;;570.40;520.50;;;;;;;24.30;82.64;98631.66;5093883;28;20287;-81
2022/06/24 08:05:26;;;;;;;552.97;503.70;;;;;;;24.49;80.82;98633.75;5093530;28;20509;-80
2022/06/24 08:07:53;;;;;;;567.33;517.87;;;;;;;24.21;80.33;98627.38;5093224;28;20654;-80
2022/06/24 08:10:20;;;;;;;548.03;499.23;;;;;;;24.64;79.13;98621.75;5093631;28;20521;-81
2022/06/24 08:12:48;;;;;;;589.90;540.03;;;;;;;25.13;75.68;98626.22;5093268;28;20192;-81
2022/06/24 08:15:16;;;;;;;593.67;543.73;;;;;;;25.59;72.81;98625.50;5093001;28;20430;-83
2022/06/24 08:17:43;;;;;;;596.70;546.70;;;;;;;25.20;73.55;98623.50;5093519;28;20449;-81
2022/06/24 08:20:10;;;;;;;595.67;545.63;;;;;;;24.39;78.97;98621.38;5093063;28;20449;-81
2022/06/24 08:22:37;;;;;;;587.47;538.00;;;;;;;24.62;76.26;98618.34;5093250;28;20509;-81
2022/06/24 08:25:04;;;;;;;580.87;531.57;;;;;;;24.83;75.75;98614.63;5093260;28;20627;-81
2022/06/24 08:27:31;;;;;;;564.43;515.07;;;;;;;25.47;73.28;98611.50;5093185;28;20481;-82
2022/06/24 08:29:59;;;;;;;607.50;557.43;;;;;;;25.81;69.17;98609.63;5092545;28;20481;-80
2022/06/24 08:32:26;;;;;;;606.93;556.87;;;;;;;25.82;69.99;98611.31;5093332;28;20430;-79
2022/06/24 08:34:52;;;;;;;607.20;557.20;;;;;;;26.05;68.08;98601.78;5092783;28;20521;-80
2022/06/24 08:37:19;;;;;;;611.27;561.07;;;;;;;25.92;66.77;98605.41;5092963;28;20775;-82
2022/06/24 08:39:45;;;;;;;625.07;574.60;;;;;;;25.55;69.66;98597.53;5091850;28;20521;-81
2022/06/24 08:42:13;;;;;;;618.60;568.37;;;;;;;25.56;69.41;98598.38;5093733;28;20430;-82
2022/06/24 08:44:40;;;;;;;632.00;581.80;;;;;;;25.89;68.37;98594.78;5103477;28;20436;-81
2022/06/24 08:47:14;;;;;;;616.77;566.67;;;;;;;26.16;67.40;98598.38;5100541;28;20744;-82
2022/06/24 08:49:41;;;;;;;603.33;553.43;;;;;;;25.80;64.65;98605.16;5091886;28;20560;-82
2022/06/24 08:52:10;;;;;;;634.20;584.00;;;;;;;25.89;64.87;98601.19;5092855;28;20452;-82
2022/06/24 08:54:42;;;;;;;635.73;584.87;;;;;;;26.21;63.00;98601.38;5092712;28;20461;-84
2022/06/24 08:57:09;;;;;;;642.97;592.40;;;;;;;26.20;61.85;98599.66;5092788;28;20444;-82
2022/06/24 08:59:36;;;;;;;640.67;590.20;;;;;;;25.90;64.59;98594.59;5092155;28;20437;-81
2022/06/24 09:02:03;;;;;;;623.57;573.37;;;;;;;26.36;64.44;98595.59;5092032;28;20466;-79
2022/06/24 09:04:33;;;;;;;665.13;613.80;;;;;;;26.36;64.05;98601.13;5092028;28;20564;-81
2022/06/24 09:07:01;;;;;;;657.10;605.93;;;;;;;25.87;64.50;98595.03;5091714;28;20434;-81
2022/06/24 09:09:29;;;;;;;623.00;572.90;;;;;;;25.79;65.05;98592.44;5091707;28;20545;-81
2022/06/24 09:11:58;;;;;;;647.60;596.90;;;;;;;25.35;67.51;98594.72;5091783;28;20522;-81
2022/06/24 09:14:44;;;;;;;638.70;588.20;;;;;;;24.62;70.27;98591.66;5091872;28;20595;-82
2022/06/24 09:17:11;;;;;;;625.63;575.30;;;;;;;24.88;70.53;98590.97;5079007;28;20459;-82
2022/06/24 09:19:39;;;;;;;620.03;569.67;;;;;;;24.85;71.25;98585.88;5072397;28;20419;-81
2022/06/24 09:22:06;;;;;;;594.70;544.90;;;;;;;24.94;69.33;98581.88;5071567;28;20442;-82
2022/06/24 09:24:44;;;;;;;589.03;539.20;;;;;;;25.06;68.93;98582.13;5075211;28;20452;-81
2022/06/24 09:27:11;;;;;;;600.20;550.57;;;;;;;24.77;70.89;98577.78;5071999;28;20450;-82
2022/06/24 09:29:37;;;;;;;596.00;546.27;;;;;;;24.83;71.24;98559.56;5071630;28;21067;-82
2022/06/24 09:32:05;;;;;;;581.90;532.80;;;;;;;25.18;70.07;98563.09;5071826;28;20514;-80
2022/06/24 09:34:31;;;;;;;602.07;552.00;;;;;;;25.07;70.02;98561.78;5071683;28;20438;-82
2022/06/24 09:36:59;;;;;;;601.90;552.10;;;;;;;25.33;68.51;98560.19;5071540;28;20885;-82
2022/06/24 09:39:26;;;;;;;586.57;537.03;;;;;;;24.84;70.50;98555.78;5071664;28;20776;-83
2022/06/24 09:41:54;;;;;;;616.93;566.73;;;;;;;25.10;68.13;98566.00;5079922;28;20578;-82
2022/06/24 09:44:21;;;;;;;610.23;560.33;;;;;;;25.44;67.26;98566.97;5072416;28;20474;-83
2022/06/24 09:47:01;;;;;;;598.90;549.30;;;;;;;25.86;65.22;98567.63;5071347;28;20510;-81
2022/06/24 09:49:28;;;;;;;641.40;590.40;;;;;;;26.08;61.93;98568.28;5090944;28;20497;-81
2022/06/24 09:51:54;;;;;;;641.27;590.50;;;;;;;26.30;60.42;98571.63;5091826;28;20494;-82
2022/06/24 09:54:24;;;;;;;644.80;594.40;;;;;;;26.13;60.80;98571.25;5091475;28;20991;-81
2022/06/24 09:56:51;;;;;;;646.43;595.63;;;;;;;25.37;63.34;98558.69;5091479;28;20533;-81
2022/06/24 10:02:03;;;;;;;617.73;567.80;;;;;;;25.36;64.84;98576.28;5091338;28;20425;-82
2022/06/24 10:04:31;;;;;;;620.10;569.60;;;;;;;25.46;63.12;98574.00;5090858;28;20525;-82
2022/06/24 10:06:58;;;;;;;637.57;587.07;;;;;;;25.49;62.40;98569.97;5091837;28;20487;-83
2022/06/24 10:09:29;;;;;;;632.23;582.17;;;;;;;26.06;59.78;98568.50;5091765;28;20561;-81
2022/06/24 10:11:57;;;;;;;643.47;593.07;;;;;;;26.39;58.63;98571.19;5079533;28;20454;-80
2022/06/24 10:14:26;;;;;;;636.23;586.13;;;;;;;25.81;59.77;98557.25;5090847;28;20873;-82
2022/06/24 10:16:54;;;;;;;641.83;590.97;;;;;;;26.11;59.63;98557.66;5091765;28;20480;-82
2022/06/24 10:19:25;;;;;;;654.00;602.93;;;;;;;25.81;60.30;98551.72;5091251;28;20509;-80
2022/06/24 10:21:52;;;;;;;654.43;603.67;;;;;;;26.20;59.39;98558.28;5092003;28;20442;-81
2022/06/24 10:24:19;;;;;;;638.63;588.00;;;;;;;25.44;61.20;98558.69;5091209;28;20856;-81
2022/06/24 10:26:51;;;;;;;629.20;579.10;;;;;;;25.62;60.25;98558.94;5091551;28;20450;-83
2022/06/24 10:29:31;;;;;;;638.97;588.13;;;;;;;26.04;58.98;98550.47;5090841;28;20983;-84
2022/06/24 10:32:08;;;;;;;614.40;564.33;;;;;;;26.09;58.94;98545.97;5090822;28;20437;-83
2022/06/24 10:34:45;;;;;;;638.20;587.67;;;;;;;26.36;58.59;98538.50;5091260;28;20430;-82
2022/06/24 10:37:26;;;;;;;625.93;576.23;;;;;;;25.79;57.68;98532.63;5101160;28;20532;-82
2022/06/24 10:39:54;;;;;;;642.83;592.27;;;;;;;25.63;56.82;98538.59;5100439;28;20433;-81
2022/06/24 10:42:24;;;;;;;618.03;568.37;;;;;;;26.20;55.61;98544.47;5091491;28;20508;-83
2022/06/24 10:44:56;;;;;;;639.90;589.50;;;;;;;26.16;56.70;98551.50;5090905;28;20457;-83
2022/06/24 10:47:41;;;;;;;661.20;610.43;;;;;;;27.02;53.35;98551.22;5090686;28;20494;-82
2022/06/24 10:50:20;;;;;;;648.83;598.10;;;;;;;27.64;51.68;98545.94;5090937;28;20955;-83
2022/06/24 10:53:01;;;;;;;658.87;608.07;;;;;;;27.99;49.91;98544.59;5091165;28;20821;-83
2022/06/24 10:55:41;;;;;;;695.73;644.10;;;;;;;28.07;48.70;98547.91;5090661;28;20867;-81
2022/06/24 10:58:12;;;;;;;689.87;638.37;;;;;;;27.84;47.40;98542.19;5091186;28;21352;-82
2022/06/24 11:00:52;;;;;;;692.07;640.70;;;;;;;27.48;49.20;98538.19;5090114;28;20830;-81
2022/06/24 11:03:31;;;;;;;706.70;654.90;;;;;;;27.91;47.12;98540.22;5090295;28;20437;-83
2022/06/24 11:05:58;;;;;;;710.67;658.73;;;;;;;27.37;47.09;98536.16;5085866;28;20541;-82
2022/06/24 11:08:26;;;;;;;697.33;645.97;;;;;;;27.04;47.66;98512.31;5090476;28;20517;-82
2022/06/24 11:10:53;;;;;;;676.17;625.23;;;;;;;27.21;46.79;98519.03;5090691;28;20430;-82
2022/06/24 11:13:23;;;;;;;687.93;636.53;;;;;;;27.52;46.97;98511.81;5090717;28;20461;-81
2022/06/24 11:15:54;;;;;;;694.93;643.37;;;;;;;27.58;47.73;98518.34;5072843;28;20821;-82